sensor_id;sensor_type;location;lat;lon;timestamp;temperature;humidity
25871;DHT22;13689;48.590;7.752;2023-07-20T00:01:51;23.90;46.20
25871;DHT22;13689;48.590;7.752;2023-07-20T00:04:17;23.90;46.30
25871;DHT22;13689;48.590;7.752;2023-07-20T00:06:43;23.80;46.20
25871;DHT22;13689;48.590;7.752;2023-07-20T00:09:08;23.80;46.30
25871;DHT22;13689;48.590;7.752;2023-07-20T00:11:36;23.80;46.90
25871;DHT22;13689;48.590;7.752;2023-07-20T00:14:05;23.70;46.40
25871;DHT22;13689;48.590;7.752;2023-07-20T00:16:31;23.60;46.50
25871;DHT22;13689;48.590;7.752;2023-07-20T00:18:56;23.60;46.60
25871;DHT22;13689;48.590;7.752;2023-07-20T00:21:22;23.60;46.60
25871;DHT22;13689;48.590;7.752;2023-07-20T00:23:48;23.60;46.60
25871;DHT22;13689;48.590;7.752;2023-07-20T00:26:13;23.50;46.70
25871;DHT22;13689;48.590;7.752;2023-07-20T00:28:39;23.50;46.70
25871;DHT22;13689;48.590;7.752;2023-07-20T00:31:04;23.50;46.80
25871;DHT22;13689;48.590;7.752;2023-07-20T00:33:30;23.50;46.90
25871;DHT22;13689;48.590;7.752;2023-07-20T00:35:56;23.50;47.00
25871;DHT22;13689;48.590;7.752;2023-07-20T00:38:21;23.50;47.00
25871;DHT22;13689;48.590;7.752;2023-07-20T00:40:47;23.50;47.00
25871;DHT22;13689;48.590;7.752;2023-07-20T00:43:14;23.40;47.00
25871;DHT22;13689;48.590;7.752;2023-07-20T00:45:41;23.40;47.10
25871;DHT22;13689;48.590;7.752;2023-07-20T00:48:07;23.40;47.20
25871;DHT22;13689;48.590;7.752;2023-07-20T00:50:33;23.30;47.30
25871;DHT22;13689;48.590;7.752;2023-07-20T00:52:59;23.30;47.30
25871;DHT22;13689;48.590;7.752;2023-07-20T00:55:26;23.30;47.40
25871;DHT22;13689;48.590;7.752;2023-07-20T00:57:52;23.30;47.50
25871;DHT22;13689;48.590;7.752;2023-07-20T01:00:18;23.20;47.50
25871;DHT22;13689;48.590;7.752;2023-07-20T01:02:44;23.20;47.60
25871;DHT22;13689;48.590;7.752;2023-07-20T01:05:10;23.20;47.60
25871;DHT22;13689;48.590;7.752;2023-07-20T01:07:50;23.20;47.60
25871;DHT22;13689;48.590;7.752;2023-07-20T01:12:52;23.20;47.60
25871;DHT22;13689;48.590;7.752;2023-07-20T01:15:18;23.20;47.70
25871;DHT22;13689;48.590;7.752;2023-07-20T01:17:44;23.20;47.70
25871;DHT22;13689;48.590;7.752;2023-07-20T01:20:13;23.20;47.70
25871;DHT22;13689;48.590;7.752;2023-07-20T01:23:07;23.20;47.70
25871;DHT22;13689;48.590;7.752;2023-07-20T01:31:33;23.20;47.80
25871;DHT22;13689;48.590;7.752;2023-07-20T01:34:01;23.20;47.80
25871;DHT22;13689;48.590;7.752;2023-07-20T01:36:30;23.10;47.90
25871;DHT22;13689;48.590;7.752;2023-07-20T01:38:56;23.10;47.90
25871;DHT22;13689;48.590;7.752;2023-07-20T01:41:23;23.10;47.90
25871;DHT22;13689;48.590;7.752;2023-07-20T01:43:48;23.10;48.10
25871;DHT22;13689;48.590;7.752;2023-07-20T01:46:14;23.00;48.20
25871;DHT22;13689;48.590;7.752;2023-07-20T01:48:39;23.00;48.30
25871;DHT22;13689;48.590;7.752;2023-07-20T01:51:05;22.90;48.40
25871;DHT22;13689;48.590;7.752;2023-07-20T01:53:31;22.90;48.50
25871;DHT22;13689;48.590;7.752;2023-07-20T01:55:57;22.90;48.60
25871;DHT22;13689;48.590;7.752;2023-07-20T01:58:23;22.90;48.70
25871;DHT22;13689;48.590;7.752;2023-07-20T02:00:48;22.90;48.70
25871;DHT22;13689;48.590;7.752;2023-07-20T02:03:14;22.90;48.70
25871;DHT22;13689;48.590;7.752;2023-07-20T02:05:42;22.90;48.80
25871;DHT22;13689;48.590;7.752;2023-07-20T02:08:07;22.90;48.90
25871;DHT22;13689;48.590;7.752;2023-07-20T02:10:33;22.80;49.00
25871;DHT22;13689;48.590;7.752;2023-07-20T02:12:59;22.80;49.00
25871;DHT22;13689;48.590;7.752;2023-07-20T02:15:25;22.80;49.00
25871;DHT22;13689;48.590;7.752;2023-07-20T02:17:50;22.80;49.00
25871;DHT22;13689;48.590;7.752;2023-07-20T02:20:16;22.80;48.90
25871;DHT22;13689;48.590;7.752;2023-07-20T02:22:42;22.80;48.90
25871;DHT22;13689;48.590;7.752;2023-07-20T02:25:08;22.80;49.00
25871;DHT22;13689;48.590;7.752;2023-07-20T02:27:34;22.80;49.10
25871;DHT22;13689;48.590;7.752;2023-07-20T02:30:00;22.80;49.10
25871;DHT22;13689;48.590;7.752;2023-07-20T02:32:25;22.80;49.30
25871;DHT22;13689;48.590;7.752;2023-07-20T02:34:51;22.80;49.30
25871;DHT22;13689;48.590;7.752;2023-07-20T02:37:17;22.80;49.40
25871;DHT22;13689;48.590;7.752;2023-07-20T02:39:42;22.80;49.50
25871;DHT22;13689;48.590;7.752;2023-07-20T02:42:08;22.70;49.70
25871;DHT22;13689;48.590;7.752;2023-07-20T02:44:34;22.70;49.80
25871;DHT22;13689;48.590;7.752;2023-07-20T02:46:59;22.70;49.80
25871;DHT22;13689;48.590;7.752;2023-07-20T02:49:26;22.70;49.90
25871;DHT22;13689;48.590;7.752;2023-07-20T02:51:51;22.70;50.00
25871;DHT22;13689;48.590;7.752;2023-07-20T02:54:17;22.70;50.10
25871;DHT22;13689;48.590;7.752;2023-07-20T02:56:42;22.70;50.10
25871;DHT22;13689;48.590;7.752;2023-07-20T02:59:08;22.70;50.20
25871;DHT22;13689;48.590;7.752;2023-07-20T03:01:34;22.70;50.30
25871;DHT22;13689;48.590;7.752;2023-07-20T03:03:59;22.60;50.30
25871;DHT22;13689;48.590;7.752;2023-07-20T03:06:25;22.60;50.40
25871;DHT22;13689;48.590;7.752;2023-07-20T03:08:50;22.50;50.40
25871;DHT22;13689;48.590;7.752;2023-07-20T03:11:19;22.40;50.60
25871;DHT22;13689;48.590;7.752;2023-07-20T03:13:47;22.40;50.70
25871;DHT22;13689;48.590;7.752;2023-07-20T03:16:15;22.30;50.70
25871;DHT22;13689;48.590;7.752;2023-07-20T03:18:43;22.30;50.80
25871;DHT22;13689;48.590;7.752;2023-07-20T03:21:09;22.30;50.80
25871;DHT22;13689;48.590;7.752;2023-07-20T03:23:37;22.40;50.80
25871;DHT22;13689;48.590;7.752;2023-07-20T03:26:03;22.30;50.80
25871;DHT22;13689;48.590;7.752;2023-07-20T03:28:28;22.40;50.90
25871;DHT22;13689;48.590;7.752;2023-07-20T03:30:57;22.30;50.90
25871;DHT22;13689;48.590;7.752;2023-07-20T03:33:28;22.30;50.80
25871;DHT22;13689;48.590;7.752;2023-07-20T03:35:54;22.40;50.90
25871;DHT22;13689;48.590;7.752;2023-07-20T03:38:20;22.40;50.90
25871;DHT22;13689;48.590;7.752;2023-07-20T03:40:53;22.40;50.90
25871;DHT22;13689;48.590;7.752;2023-07-20T03:43:19;22.40;51.00
25871;DHT22;13689;48.590;7.752;2023-07-20T03:45:45;22.40;50.90
25871;DHT22;13689;48.590;7.752;2023-07-20T03:48:11;22.30;51.00
25871;DHT22;13689;48.590;7.752;2023-07-20T03:50:37;22.20;51.10
25871;DHT22;13689;48.590;7.752;2023-07-20T03:53:03;22.20;51.10
25871;DHT22;13689;48.590;7.752;2023-07-20T03:55:28;22.20;51.20
25871;DHT22;13689;48.590;7.752;2023-07-20T03:57:54;22.20;51.40
25871;DHT22;13689;48.590;7.752;2023-07-20T04:00:19;22.20;51.40
25871;DHT22;13689;48.590;7.752;2023-07-20T04:02:45;22.20;51.50
25871;DHT22;13689;48.590;7.752;2023-07-20T04:05:11;22.20;51.70
25871;DHT22;13689;48.590;7.752;2023-07-20T04:07:36;22.10;51.70
25871;DHT22;13689;48.590;7.752;2023-07-20T04:10:02;22.10;51.90
25871;DHT22;13689;48.590;7.752;2023-07-20T04:12:28;22.20;51.90
25871;DHT22;13689;48.590;7.752;2023-07-20T04:14:53;22.10;51.90
25871;DHT22;13689;48.590;7.752;2023-07-20T04:17:19;22.20;52.00
25871;DHT22;13689;48.590;7.752;2023-07-20T04:19:44;22.20;52.00
25871;DHT22;13689;48.590;7.752;2023-07-20T04:22:10;22.20;52.10
25871;DHT22;13689;48.590;7.752;2023-07-20T04:24:36;22.10;52.10
25871;DHT22;13689;48.590;7.752;2023-07-20T04:27:01;22.10;52.20
25871;DHT22;13689;48.590;7.752;2023-07-20T04:29:27;22.10;52.20
25871;DHT22;13689;48.590;7.752;2023-07-20T04:31:52;22.10;52.30
25871;DHT22;13689;48.590;7.752;2023-07-20T04:34:18;22.10;52.30
25871;DHT22;13689;48.590;7.752;2023-07-20T04:36:44;22.20;52.30
25871;DHT22;13689;48.590;7.752;2023-07-20T04:39:10;22.20;52.30
25871;DHT22;13689;48.590;7.752;2023-07-20T04:41:35;22.20;52.20
25871;DHT22;13689;48.590;7.752;2023-07-20T04:44:01;22.20;52.20
25871;DHT22;13689;48.590;7.752;2023-07-20T04:46:27;22.30;52.30
25871;DHT22;13689;48.590;7.752;2023-07-20T04:48:52;22.30;52.40
25871;DHT22;13689;48.590;7.752;2023-07-20T04:51:18;22.30;52.40
25871;DHT22;13689;48.590;7.752;2023-07-20T04:53:46;22.30;52.50
25871;DHT22;13689;48.590;7.752;2023-07-20T04:56:12;22.30;52.60
25871;DHT22;13689;48.590;7.752;2023-07-20T04:58:38;22.30;52.30
25871;DHT22;13689;48.590;7.752;2023-07-20T05:01:03;22.40;52.30
25871;DHT22;13689;48.590;7.752;2023-07-20T05:03:29;22.40;52.20
25871;DHT22;13689;48.590;7.752;2023-07-20T05:05:54;22.50;52.10
25871;DHT22;13689;48.590;7.752;2023-07-20T05:08:20;22.60;52.10
25871;DHT22;13689;48.590;7.752;2023-07-20T05:10:47;22.70;51.80
25871;DHT22;13689;48.590;7.752;2023-07-20T05:13:13;22.80;51.80
25871;DHT22;13689;48.590;7.752;2023-07-20T05:15:39;22.90;51.60
25871;DHT22;13689;48.590;7.752;2023-07-20T05:18:05;22.90;51.50
25871;DHT22;13689;48.590;7.752;2023-07-20T05:20:31;22.90;51.40
25871;DHT22;13689;48.590;7.752;2023-07-20T05:22:58;22.80;51.40
25871;DHT22;13689;48.590;7.752;2023-07-20T05:25:24;22.90;51.50
25871;DHT22;13689;48.590;7.752;2023-07-20T05:27:50;22.90;51.50
25871;DHT22;13689;48.590;7.752;2023-07-20T05:30:16;22.90;51.50
25871;DHT22;13689;48.590;7.752;2023-07-20T05:32:41;23.00;51.40
25871;DHT22;13689;48.590;7.752;2023-07-20T05:35:08;23.20;51.90
25871;DHT22;13689;48.590;7.752;2023-07-20T05:37:36;23.40;51.10
25871;DHT22;13689;48.590;7.752;2023-07-20T05:40:02;23.60;50.70
25871;DHT22;13689;48.590;7.752;2023-07-20T05:42:28;23.70;50.40
25871;DHT22;13689;48.590;7.752;2023-07-20T05:44:53;23.90;50.20
25871;DHT22;13689;48.590;7.752;2023-07-20T05:47:20;24.00;50.00
25871;DHT22;13689;48.590;7.752;2023-07-20T05:49:46;23.90;49.80
25871;DHT22;13689;48.590;7.752;2023-07-20T05:52:11;23.90;49.60
25871;DHT22;13689;48.590;7.752;2023-07-20T05:54:37;24.00;49.50
25871;DHT22;13689;48.590;7.752;2023-07-20T05:57:03;24.20;49.20
25871;DHT22;13689;48.590;7.752;2023-07-20T05:59:28;24.30;48.90
25871;DHT22;13689;48.590;7.752;2023-07-20T06:01:55;24.50;48.70
25871;DHT22;13689;48.590;7.752;2023-07-20T06:04:20;24.70;48.40
25871;DHT22;13689;48.590;7.752;2023-07-20T06:06:46;24.60;48.10
25871;DHT22;13689;48.590;7.752;2023-07-20T06:09:12;24.50;48.10
25871;DHT22;13689;48.590;7.752;2023-07-20T06:11:40;24.50;48.10
25871;DHT22;13689;48.590;7.752;2023-07-20T06:14:06;24.60;47.90
25871;DHT22;13689;48.590;7.752;2023-07-20T06:16:32;24.70;47.70
25871;DHT22;13689;48.590;7.752;2023-07-20T06:18:59;24.80;47.40
25871;DHT22;13689;48.590;7.752;2023-07-20T06:21:25;25.10;47.00
25871;DHT22;13689;48.590;7.752;2023-07-20T06:23:50;25.20;46.70
25871;DHT22;13689;48.590;7.752;2023-07-20T06:26:16;25.30;46.30
25871;DHT22;13689;48.590;7.752;2023-07-20T06:28:41;25.30;46.10
25871;DHT22;13689;48.590;7.752;2023-07-20T06:31:07;25.40;46.00
25871;DHT22;13689;48.590;7.752;2023-07-20T06:33:33;25.50;45.70
25871;DHT22;13689;48.590;7.752;2023-07-20T06:36:00;25.50;45.40
25871;DHT22;13689;48.590;7.752;2023-07-20T06:38:25;25.50;45.30
25871;DHT22;13689;48.590;7.752;2023-07-20T06:40:51;25.50;45.20
25871;DHT22;13689;48.590;7.752;2023-07-20T06:43:17;25.70;45.10
25871;DHT22;13689;48.590;7.752;2023-07-20T06:45:43;25.90;44.90
25871;DHT22;13689;48.590;7.752;2023-07-20T06:48:08;26.10;44.60
25871;DHT22;13689;48.590;7.752;2023-07-20T06:50:34;26.30;44.30
25871;DHT22;13689;48.590;7.752;2023-07-20T06:53:00;26.40;44.00
25871;DHT22;13689;48.590;7.752;2023-07-20T06:55:28;26.40;43.80
25871;DHT22;13689;48.590;7.752;2023-07-20T06:57:54;26.40;43.80
25871;DHT22;13689;48.590;7.752;2023-07-20T07:00:20;26.40;43.80
25871;DHT22;13689;48.590;7.752;2023-07-20T07:02:45;26.50;43.70
25871;DHT22;13689;48.590;7.752;2023-07-20T07:05:11;26.50;43.50
25871;DHT22;13689;48.590;7.752;2023-07-20T07:07:38;26.70;43.50
25871;DHT22;13689;48.590;7.752;2023-07-20T07:10:04;26.80;43.20
25871;DHT22;13689;48.590;7.752;2023-07-20T07:12:30;27.00;43.00
25871;DHT22;13689;48.590;7.752;2023-07-20T07:14:56;27.20;42.70
25871;DHT22;13689;48.590;7.752;2023-07-20T07:17:22;27.20;42.40
25871;DHT22;13689;48.590;7.752;2023-07-20T07:19:47;27.30;42.40
25871;DHT22;13689;48.590;7.752;2023-07-20T07:22:13;27.40;42.10
25871;DHT22;13689;48.590;7.752;2023-07-20T07:24:39;27.40;42.10
25871;DHT22;13689;48.590;7.752;2023-07-20T07:27:08;27.50;42.10
25871;DHT22;13689;48.590;7.752;2023-07-20T07:29:33;27.40;41.90
25871;DHT22;13689;48.590;7.752;2023-07-20T07:31:59;27.40;42.00
25871;DHT22;13689;48.590;7.752;2023-07-20T07:34:25;27.50;42.00
25871;DHT22;13689;48.590;7.752;2023-07-20T07:36:53;27.70;41.90
25871;DHT22;13689;48.590;7.752;2023-07-20T07:39:18;27.80;41.60
25871;DHT22;13689;48.590;7.752;2023-07-20T07:41:44;28.10;41.50
25871;DHT22;13689;48.590;7.752;2023-07-20T07:44:10;28.30;41.20
25871;DHT22;13689;48.590;7.752;2023-07-20T07:46:36;28.50;41.10
25871;DHT22;13689;48.590;7.752;2023-07-20T07:49:01;28.60;40.90
25871;DHT22;13689;48.590;7.752;2023-07-20T07:51:27;28.80;40.50
25871;DHT22;13689;48.590;7.752;2023-07-20T07:53:52;28.90;40.40
25871;DHT22;13689;48.590;7.752;2023-07-20T07:56:18;29.00;40.20
25871;DHT22;13689;48.590;7.752;2023-07-20T07:58:51;29.10;40.00
25871;DHT22;13689;48.590;7.752;2023-07-20T08:01:17;29.20;39.90
25871;DHT22;13689;48.590;7.752;2023-07-20T08:03:44;29.40;39.80
25871;DHT22;13689;48.590;7.752;2023-07-20T08:06:15;29.50;39.40
25871;DHT22;13689;48.590;7.752;2023-07-20T08:08:41;29.60;39.10
25871;DHT22;13689;48.590;7.752;2023-07-20T08:11:07;29.70;39.00
25871;DHT22;13689;48.590;7.752;2023-07-20T08:13:33;30.00;38.90
25871;DHT22;13689;48.590;7.752;2023-07-20T08:15:58;30.30;38.60
25871;DHT22;13689;48.590;7.752;2023-07-20T08:18:24;30.40;38.10
25871;DHT22;13689;48.590;7.752;2023-07-20T08:20:50;30.50;37.60
25871;DHT22;13689;48.590;7.752;2023-07-20T08:23:16;30.70;37.30
25871;DHT22;13689;48.590;7.752;2023-07-20T08:25:41;30.90;36.90
25871;DHT22;13689;48.590;7.752;2023-07-20T08:28:14;31.10;36.60
25871;DHT22;13689;48.590;7.752;2023-07-20T08:30:47;31.50;36.30
25871;DHT22;13689;48.590;7.752;2023-07-20T08:33:14;31.90;35.70
25871;DHT22;13689;48.590;7.752;2023-07-20T08:35:40;32.40;35.10
25871;DHT22;13689;48.590;7.752;2023-07-20T08:38:06;32.80;34.60
25871;DHT22;13689;48.590;7.752;2023-07-20T08:40:33;33.10;34.30
25871;DHT22;13689;48.590;7.752;2023-07-20T08:43:00;33.50;33.80
25871;DHT22;13689;48.590;7.752;2023-07-20T08:45:28;33.60;33.00
25871;DHT22;13689;48.590;7.752;2023-07-20T08:47:55;33.30;32.50
25871;DHT22;13689;48.590;7.752;2023-07-20T08:50:21;33.50;32.60
25871;DHT22;13689;48.590;7.752;2023-07-20T08:52:48;33.90;32.10
25871;DHT22;13689;48.590;7.752;2023-07-20T08:55:15;34.20;31.90
25871;DHT22;13689;48.590;7.752;2023-07-20T08:57:43;34.50;31.50
25871;DHT22;13689;48.590;7.752;2023-07-20T09:00:13;33.80;31.20
25871;DHT22;13689;48.590;7.752;2023-07-20T09:02:39;33.10;31.60
25871;DHT22;13689;48.590;7.752;2023-07-20T09:05:08;32.20;32.50
25871;DHT22;13689;48.590;7.752;2023-07-20T09:07:36;31.20;33.20
25871;DHT22;13689;48.590;7.752;2023-07-20T09:10:02;30.40;34.10
25871;DHT22;13689;48.590;7.752;2023-07-20T09:12:32;30.20;34.50
25871;DHT22;13689;48.590;7.752;2023-07-20T09:14:58;31.90;33.50
25871;DHT22;13689;48.590;7.752;2023-07-20T09:17:26;33.10;32.10
25871;DHT22;13689;48.590;7.752;2023-07-20T09:19:51;34.10;30.90
25871;DHT22;13689;48.590;7.752;2023-07-20T09:22:17;34.80;30.00
25871;DHT22;13689;48.590;7.752;2023-07-20T09:24:43;35.30;29.60
25871;DHT22;13689;48.590;7.752;2023-07-20T09:27:09;35.10;29.40
25871;DHT22;13689;48.590;7.752;2023-07-20T09:29:50;35.20;29.30
25871;DHT22;13689;48.590;7.752;2023-07-20T09:32:20;34.70;28.80
25871;DHT22;13689;48.590;7.752;2023-07-20T09:34:46;34.10;29.30
25871;DHT22;13689;48.590;7.752;2023-07-20T09:37:12;33.10;30.00
25871;DHT22;13689;48.590;7.752;2023-07-20T09:39:45;32.20;31.00
25871;DHT22;13689;48.590;7.752;2023-07-20T09:42:12;31.30;31.80
25871;DHT22;13689;48.590;7.752;2023-07-20T09:44:39;32.00;32.10
25871;DHT22;13689;48.590;7.752;2023-07-20T09:47:05;32.40;31.30
25871;DHT22;13689;48.590;7.752;2023-07-20T09:49:31;33.00;30.80
25871;DHT22;13689;48.590;7.752;2023-07-20T09:52:01;32.10;30.70
25871;DHT22;13689;48.590;7.752;2023-07-20T09:54:28;31.20;31.80
25871;DHT22;13689;48.590;7.752;2023-07-20T09:56:55;30.50;32.80
25871;DHT22;13689;48.590;7.752;2023-07-20T09:59:21;30.00;33.60
25871;DHT22;13689;48.590;7.752;2023-07-20T10:01:47;29.50;34.10
25871;DHT22;13689;48.590;7.752;2023-07-20T10:04:15;29.30;34.50
25871;DHT22;13689;48.590;7.752;2023-07-20T10:06:42;29.30;34.60
25871;DHT22;13689;48.590;7.752;2023-07-20T10:09:10;29.20;34.70
25871;DHT22;13689;48.590;7.752;2023-07-20T10:11:41;29.10;34.60
25871;DHT22;13689;48.590;7.752;2023-07-20T10:14:08;28.90;34.40
25871;DHT22;13689;48.590;7.752;2023-07-20T10:16:41;29.60;34.20
25871;DHT22;13689;48.590;7.752;2023-07-20T10:19:27;30.80;33.60
25871;DHT22;13689;48.590;7.752;2023-07-20T10:22:00;32.10;32.50
25871;DHT22;13689;48.590;7.752;2023-07-20T10:24:28;32.20;31.40
25871;DHT22;13689;48.590;7.752;2023-07-20T10:26:54;31.60;31.40
25871;DHT22;13689;48.590;7.752;2023-07-20T10:29:21;31.10;31.70
25871;DHT22;13689;48.590;7.752;2023-07-20T10:31:47;31.00;31.90
25871;DHT22;13689;48.590;7.752;2023-07-20T10:34:13;30.80;32.10
25871;DHT22;13689;48.590;7.752;2023-07-20T10:36:45;31.40;31.60
25871;DHT22;13689;48.590;7.752;2023-07-20T10:39:34;31.70;30.60
25871;DHT22;13689;48.590;7.752;2023-07-20T10:42:01;31.00;30.70
25871;DHT22;13689;48.590;7.752;2023-07-20T10:44:28;30.50;31.20
25871;DHT22;13689;48.590;7.752;2023-07-20T10:47:08;30.20;31.60
25871;DHT22;13689;48.590;7.752;2023-07-20T10:49:34;30.00;31.80
25871;DHT22;13689;48.590;7.752;2023-07-20T10:52:04;29.90;32.00
25871;DHT22;13689;48.590;7.752;2023-07-20T10:56:57;29.80;32.10
25871;DHT22;13689;48.590;7.752;2023-07-20T11:01:49;29.90;32.00
25871;DHT22;13689;48.590;7.752;2023-07-20T11:04:15;29.80;31.90
25871;DHT22;13689;48.590;7.752;2023-07-20T11:06:55;29.80;32.00
25871;DHT22;13689;48.590;7.752;2023-07-20T11:09:22;29.50;31.90
25871;DHT22;13689;48.590;7.752;2023-07-20T11:12:09;29.30;32.30
25871;DHT22;13689;48.590;7.752;2023-07-20T11:14:44;29.20;32.50
25871;DHT22;13689;48.590;7.752;2023-07-20T11:17:18;29.10;32.60
25871;DHT22;13689;48.590;7.752;2023-07-20T11:19:48;28.90;32.70
25871;DHT22;13689;48.590;7.752;2023-07-20T11:22:17;28.90;33.00
25871;DHT22;13689;48.590;7.752;2023-07-20T11:24:43;29.00;32.90
25871;DHT22;13689;48.590;7.752;2023-07-20T11:27:08;29.00;32.60
25871;DHT22;13689;48.590;7.752;2023-07-20T11:29:35;28.80;32.40
25871;DHT22;13689;48.590;7.752;2023-07-20T11:32:02;28.70;32.70
25871;DHT22;13689;48.590;7.752;2023-07-20T11:34:32;28.70;32.60
25871;DHT22;13689;48.590;7.752;2023-07-20T11:36:58;28.90;32.50
25871;DHT22;13689;48.590;7.752;2023-07-20T11:39:25;29.10;32.10
25871;DHT22;13689;48.590;7.752;2023-07-20T11:41:55;29.30;31.80
25871;DHT22;13689;48.590;7.752;2023-07-20T11:44:29;29.50;31.50
25871;DHT22;13689;48.590;7.752;2023-07-20T11:47:06;29.50;31.20
25871;DHT22;13689;48.590;7.752;2023-07-20T11:49:40;29.50;30.90
25871;DHT22;13689;48.590;7.752;2023-07-20T11:52:07;29.30;30.90
25871;DHT22;13689;48.590;7.752;2023-07-20T11:54:37;29.20;31.20
25871;DHT22;13689;48.590;7.752;2023-07-20T11:57:03;29.20;31.20
25871;DHT22;13689;48.590;7.752;2023-07-20T11:59:30;29.10;31.20
25871;DHT22;13689;48.590;7.752;2023-07-20T12:01:57;29.00;31.30
25871;DHT22;13689;48.590;7.752;2023-07-20T12:04:23;28.90;31.40
25871;DHT22;13689;48.590;7.752;2023-07-20T12:06:49;28.80;31.50
25871;DHT22;13689;48.590;7.752;2023-07-20T12:09:16;28.80;31.60
25871;DHT22;13689;48.590;7.752;2023-07-20T12:11:43;28.80;31.40
25871;DHT22;13689;48.590;7.752;2023-07-20T12:14:10;28.90;31.30
25871;DHT22;13689;48.590;7.752;2023-07-20T12:16:36;29.00;31.30
25871;DHT22;13689;48.590;7.752;2023-07-20T12:19:12;29.10;31.10
25871;DHT22;13689;48.590;7.752;2023-07-20T12:21:40;29.10;31.00
25871;DHT22;13689;48.590;7.752;2023-07-20T12:24:08;29.10;30.90
25871;DHT22;13689;48.590;7.752;2023-07-20T12:26:37;29.20;30.90
25871;DHT22;13689;48.590;7.752;2023-07-20T12:29:03;29.20;31.00
25871;DHT22;13689;48.590;7.752;2023-07-20T12:31:29;29.10;31.00
25871;DHT22;13689;48.590;7.752;2023-07-20T12:33:57;29.00;31.20
25871;DHT22;13689;48.590;7.752;2023-07-20T12:36:24;29.10;31.40
25871;DHT22;13689;48.590;7.752;2023-07-20T12:38:50;29.10;31.30
25871;DHT22;13689;48.590;7.752;2023-07-20T12:41:17;29.20;31.20
25871;DHT22;13689;48.590;7.752;2023-07-20T12:43:46;29.00;31.10
25871;DHT22;13689;48.590;7.752;2023-07-20T12:46:13;29.00;31.10
25871;DHT22;13689;48.590;7.752;2023-07-20T12:48:39;29.10;31.00
25871;DHT22;13689;48.590;7.752;2023-07-20T12:51:07;29.10;30.90
25871;DHT22;13689;48.590;7.752;2023-07-20T12:53:33;29.00;30.90
25871;DHT22;13689;48.590;7.752;2023-07-20T12:55:59;29.00;31.00
25871;DHT22;13689;48.590;7.752;2023-07-20T12:58:25;29.10;31.10
25871;DHT22;13689;48.590;7.752;2023-07-20T13:00:51;29.10;31.10
25871;DHT22;13689;48.590;7.752;2023-07-20T13:03:16;29.20;31.10
25871;DHT22;13689;48.590;7.752;2023-07-20T13:05:44;29.20;31.00
25871;DHT22;13689;48.590;7.752;2023-07-20T13:08:09;29.10;31.10
25871;DHT22;13689;48.590;7.752;2023-07-20T13:10:36;29.00;31.10
25871;DHT22;13689;48.590;7.752;2023-07-20T13:13:01;29.00;31.40
25871;DHT22;13689;48.590;7.752;2023-07-20T13:15:31;29.00;31.40
25871;DHT22;13689;48.590;7.752;2023-07-20T13:17:57;28.90;31.40
25871;DHT22;13689;48.590;7.752;2023-07-20T13:20:24;28.80;31.40
25871;DHT22;13689;48.590;7.752;2023-07-20T13:22:50;28.70;31.70
25871;DHT22;13689;48.590;7.752;2023-07-20T13:25:16;28.70;31.70
25871;DHT22;13689;48.590;7.752;2023-07-20T13:27:42;28.80;31.60
25871;DHT22;13689;48.590;7.752;2023-07-20T13:30:07;28.70;31.60
25871;DHT22;13689;48.590;7.752;2023-07-20T13:32:35;28.80;31.60
25871;DHT22;13689;48.590;7.752;2023-07-20T13:35:01;28.80;31.60
25871;DHT22;13689;48.590;7.752;2023-07-20T13:37:27;28.90;31.50
25871;DHT22;13689;48.590;7.752;2023-07-20T13:39:53;28.90;31.40
25871;DHT22;13689;48.590;7.752;2023-07-20T13:42:19;28.90;31.30
25871;DHT22;13689;48.590;7.752;2023-07-20T13:44:47;28.80;31.50
25871;DHT22;13689;48.590;7.752;2023-07-20T13:47:13;28.90;31.50
25871;DHT22;13689;48.590;7.752;2023-07-20T13:49:38;28.90;31.40
25871;DHT22;13689;48.590;7.752;2023-07-20T13:52:04;28.90;31.40
25871;DHT22;13689;48.590;7.752;2023-07-20T13:54:30;28.80;31.40
25871;DHT22;13689;48.590;7.752;2023-07-20T13:56:55;28.70;31.50
25871;DHT22;13689;48.590;7.752;2023-07-20T13:59:22;28.60;31.60
25871;DHT22;13689;48.590;7.752;2023-07-20T14:01:48;28.50;31.50
25871;DHT22;13689;48.590;7.752;2023-07-20T14:04:14;28.40;31.90
25871;DHT22;13689;48.590;7.752;2023-07-20T14:06:40;28.40;32.00
25871;DHT22;13689;48.590;7.752;2023-07-20T14:09:06;28.40;32.60
25871;DHT22;13689;48.590;7.752;2023-07-20T14:11:31;28.40;32.00
25871;DHT22;13689;48.590;7.752;2023-07-20T14:13:57;28.40;31.90
25871;DHT22;13689;48.590;7.752;2023-07-20T14:16:24;28.40;31.90
25871;DHT22;13689;48.590;7.752;2023-07-20T14:18:49;28.40;32.00
25871;DHT22;13689;48.590;7.752;2023-07-20T14:21:16;28.40;31.90
25871;DHT22;13689;48.590;7.752;2023-07-20T14:23:44;28.30;31.90
25871;DHT22;13689;48.590;7.752;2023-07-20T14:26:10;28.20;32.20
25871;DHT22;13689;48.590;7.752;2023-07-20T14:28:35;28.20;32.30
25871;DHT22;13689;48.590;7.752;2023-07-20T14:31:01;28.40;32.30
25871;DHT22;13689;48.590;7.752;2023-07-20T14:33:27;28.50;32.20
25871;DHT22;13689;48.590;7.752;2023-07-20T14:35:52;28.70;32.00
25871;DHT22;13689;48.590;7.752;2023-07-20T14:38:18;28.70;31.90
25871;DHT22;13689;48.590;7.752;2023-07-20T14:40:43;28.60;32.00
25871;DHT22;13689;48.590;7.752;2023-07-20T14:43:10;28.60;32.20
25871;DHT22;13689;48.590;7.752;2023-07-20T14:45:35;28.70;32.10
25871;DHT22;13689;48.590;7.752;2023-07-20T14:48:03;28.80;32.20
25871;DHT22;13689;48.590;7.752;2023-07-20T14:50:29;28.90;32.10
25871;DHT22;13689;48.590;7.752;2023-07-20T14:52:54;28.90;32.10
25871;DHT22;13689;48.590;7.752;2023-07-20T14:55:20;28.90;32.10
25871;DHT22;13689;48.590;7.752;2023-07-20T14:57:45;28.80;32.10
25871;DHT22;13689;48.590;7.752;2023-07-20T15:00:12;28.90;32.10
25871;DHT22;13689;48.590;7.752;2023-07-20T15:02:38;28.90;31.90
25871;DHT22;13689;48.590;7.752;2023-07-20T15:05:07;29.00;31.90
25871;DHT22;13689;48.590;7.752;2023-07-20T15:07:33;29.10;31.80
25871;DHT22;13689;48.590;7.752;2023-07-20T15:10:00;29.10;31.70
25871;DHT22;13689;48.590;7.752;2023-07-20T15:12:26;29.10;31.60
25871;DHT22;13689;48.590;7.752;2023-07-20T15:17:30;29.10;31.60
25871;DHT22;13689;48.590;7.752;2023-07-20T15:19:56;29.20;31.60
25871;DHT22;13689;48.590;7.752;2023-07-20T15:22:21;29.30;31.60
25871;DHT22;13689;48.590;7.752;2023-07-20T15:24:47;29.40;31.50
25871;DHT22;13689;48.590;7.752;2023-07-20T15:27:13;29.40;31.10
25871;DHT22;13689;48.590;7.752;2023-07-20T15:29:38;29.20;30.90
25871;DHT22;13689;48.590;7.752;2023-07-20T15:32:04;29.00;31.20
25871;DHT22;13689;48.590;7.752;2023-07-20T15:34:31;28.90;31.40
25871;DHT22;13689;48.590;7.752;2023-07-20T15:36:57;29.00;31.50
25871;DHT22;13689;48.590;7.752;2023-07-20T15:39:22;29.00;31.60
25871;DHT22;13689;48.590;7.752;2023-07-20T15:41:49;28.90;31.40
25871;DHT22;13689;48.590;7.752;2023-07-20T15:44:15;28.80;31.50